sensor_id;sensor_type;location;lat;lon;timestamp;P1;durP1;ratioP1;P2;durP2;ratioP2
9836;SDS011;4957;51.412;6.724;2023-03-11T00:00:59;0.20;;;0.20;;
9836;SDS011;4957;51.412;6.724;2023-03-11T00:03:25;0.20;;;0.20;;
9836;SDS011;4957;51.412;6.724;2023-03-11T00:05:53;0.30;;;0.30;;
9836;SDS011;4957;51.412;6.724;2023-03-11T00:08:21;0.20;;;0.20;;
9836;SDS011;4957;51.412;6.724;2023-03-11T00:10:50;0.20;;;0.20;;
9836;SDS011;4957;51.412;6.724;2023-03-11T00:13:19;0.20;;;0.20;;
9836;SDS011;4957;51.412;6.724;2023-03-11T00:15:46;0.20;;;0.20;;
9836;SDS011;4957;51.412;6.724;2023-03-11T00:18:13;0.20;;;0.20;;
9836;SDS011;4957;51.412;6.724;2023-03-11T00:20:40;0.20;;;0.20;;
9836;SDS011;4957;51.412;6.724;2023-03-11T00:23:07;0.20;;;0.20;;
9836;SDS011;4957;51.412;6.724;2023-03-11T00:25:35;0.10;;;0.10;;
9836;SDS011;4957;51.412;6.724;2023-03-11T00:28:02;0.20;;;0.20;;
9836;SDS011;4957;51.412;6.724;2023-03-11T00:30:29;0.20;;;0.20;;
9836;SDS011;4957;51.412;6.724;2023-03-11T00:32:56;0.20;;;0.20;;
9836;SDS011;4957;51.412;6.724;2023-03-11T00:35:26;0.20;;;0.20;;
9836;SDS011;4957;51.412;6.724;2023-03-11T00:37:55;0.20;;;0.20;;
9836;SDS011;4957;51.412;6.724;2023-03-11T00:40:23;0.30;;;0.30;;
9836;SDS011;4957;51.412;6.724;2023-03-11T00:42:50;0.20;;;0.20;;
9836;SDS011;4957;51.412;6.724;2023-03-11T00:45:16;0.10;;;0.10;;
9836;SDS011;4957;51.412;6.724;2023-03-11T00:47:42;0.20;;;0.20;;
9836;SDS011;4957;51.412;6.724;2023-03-11T00:50:09;0.20;;;0.20;;
9836;SDS011;4957;51.412;6.724;2023-03-11T00:52:43;0.20;;;0.20;;
9836;SDS011;4957;51.412;6.724;2023-03-11T00:55:10;0.20;;;0.20;;
9836;SDS011;4957;51.412;6.724;2023-03-11T00:57:39;0.20;;;0.20;;
9836;SDS011;4957;51.412;6.724;2023-03-11T01:00:04;0.20;;;0.20;;
9836;SDS011;4957;51.412;6.724;2023-03-11T01:02:35;0.20;;;0.20;;
9836;SDS011;4957;51.412;6.724;2023-03-11T01:05:02;0.20;;;0.20;;
9836;SDS011;4957;51.412;6.724;2023-03-11T01:07:29;0.20;;;0.20;;
9836;SDS011;4957;51.412;6.724;2023-03-11T01:09:55;0.10;;;0.10;;
9836;SDS011;4957;51.412;6.724;2023-03-11T01:12:21;0.20;;;0.20;;
9836;SDS011;4957;51.412;6.724;2023-03-11T01:14:46;0.10;;;0.10;;
9836;SDS011;4957;51.412;6.724;2023-03-11T01:17:12;0.20;;;0.20;;
9836;SDS011;4957;51.412;6.724;2023-03-11T01:19:38;0.20;;;0.20;;
9836;SDS011;4957;51.412;6.724;2023-03-11T01:22:03;0.20;;;0.20;;
9836;SDS011;4957;51.412;6.724;2023-03-11T01:24:29;0.20;;;0.20;;
9836;SDS011;4957;51.412;6.724;2023-03-11T01:26:55;0.20;;;0.20;;
9836;SDS011;4957;51.412;6.724;2023-03-11T01:29:20;0.20;;;0.20;;
9836;SDS011;4957;51.412;6.724;2023-03-11T01:31:46;0.20;;;0.20;;
9836;SDS011;4957;51.412;6.724;2023-03-11T01:34:12;0.20;;;0.20;;
9836;SDS011;4957;51.412;6.724;2023-03-11T01:36:37;0.20;;;0.20;;
9836;SDS011;4957;51.412;6.724;2023-03-11T01:39:03;0.20;;;0.20;;
9836;SDS011;4957;51.412;6.724;2023-03-11T01:41:29;0.20;;;0.20;;
9836;SDS011;4957;51.412;6.724;2023-03-11T01:43:55;0.20;;;0.20;;
9836;SDS011;4957;51.412;6.724;2023-03-11T01:46:25;0.20;;;0.20;;
9836;SDS011;4957;51.412;6.724;2023-03-11T01:48:53;0.20;;;0.20;;
9836;SDS011;4957;51.412;6.724;2023-03-11T01:54:03;0.20;;;0.20;;
9836;SDS011;4957;51.412;6.724;2023-03-11T01:56:31;0.20;;;0.20;;
9836;SDS011;4957;51.412;6.724;2023-03-11T01:58:58;0.20;;;0.20;;
9836;SDS011;4957;51.412;6.724;2023-03-11T02:01:24;0.20;;;0.20;;
9836;SDS011;4957;51.412;6.724;2023-03-11T02:03:49;0.20;;;0.20;;
9836;SDS011;4957;51.412;6.724;2023-03-11T02:06:16;0.20;;;0.20;;
9836;SDS011;4957;51.412;6.724;2023-03-11T02:08:44;0.20;;;0.20;;
9836;SDS011;4957;51.412;6.724;2023-03-11T02:11:11;0.20;;;0.20;;
9836;SDS011;4957;51.412;6.724;2023-03-11T02:13:41;0.20;;;0.20;;
9836;SDS011;4957;51.412;6.724;2023-03-11T02:16:08;0.20;;;0.20;;
9836;SDS011;4957;51.412;6.724;2023-03-11T02:18:35;0.20;;;0.20;;
9836;SDS011;4957;51.412;6.724;2023-03-11T02:23:58;0.20;;;0.20;;
9836;SDS011;4957;51.412;6.724;2023-03-11T02:29:22;0.20;;;0.20;;
9836;SDS011;4957;51.412;6.724;2023-03-11T02:31:49;0.20;;;0.20;;
9836;SDS011;4957;51.412;6.724;2023-03-11T02:34:18;0.20;;;0.20;;
9836;SDS011;4957;51.412;6.724;2023-03-11T02:36:51;0.20;;;0.20;;
9836;SDS011;4957;51.412;6.724;2023-03-11T02:39:30;0.20;;;0.20;;
9836;SDS011;4957;51.412;6.724;2023-03-11T02:41:58;0.20;;;0.20;;
9836;SDS011;4957;51.412;6.724;2023-03-11T02:44:24;0.20;;;0.20;;
9836;SDS011;4957;51.412;6.724;2023-03-11T02:46:50;0.20;;;0.20;;
9836;SDS011;4957;51.412;6.724;2023-03-11T02:49:17;0.20;;;0.20;;
9836;SDS011;4957;51.412;6.724;2023-03-11T02:51:44;0.20;;;0.20;;
9836;SDS011;4957;51.412;6.724;2023-03-11T02:54:10;0.20;;;0.20;;
9836;SDS011;4957;51.412;6.724;2023-03-11T02:56:36;0.30;;;0.30;;
9836;SDS011;4957;51.412;6.724;2023-03-11T02:59:01;0.20;;;0.20;;
9836;SDS011;4957;51.412;6.724;2023-03-11T03:01:27;0.20;;;0.20;;
9836;SDS011;4957;51.412;6.724;2023-03-11T03:03:53;0.20;;;0.20;;
9836;SDS011;4957;51.412;6.724;2023-03-11T03:06:18;0.20;;;0.20;;
9836;SDS011;4957;51.412;6.724;2023-03-11T03:08:44;0.30;;;0.30;;
9836;SDS011;4957;51.412;6.724;2023-03-11T03:11:10;0.20;;;0.20;;
9836;SDS011;4957;51.412;6.724;2023-03-11T03:13:36;0.20;;;0.20;;
9836;SDS011;4957;51.412;6.724;2023-03-11T03:16:01;0.20;;;0.20;;
9836;SDS011;4957;51.412;6.724;2023-03-11T03:18:27;0.20;;;0.20;;
9836;SDS011;4957;51.412;6.724;2023-03-11T03:20:53;0.30;;;0.30;;
9836;SDS011;4957;51.412;6.724;2023-03-11T03:23:19;0.20;;;0.20;;
9836;SDS011;4957;51.412;6.724;2023-03-11T03:25:45;0.20;;;0.20;;
9836;SDS011;4957;51.412;6.724;2023-03-11T03:28:11;0.20;;;0.20;;
9836;SDS011;4957;51.412;6.724;2023-03-11T03:30:37;0.20;;;0.20;;
9836;SDS011;4957;51.412;6.724;2023-03-11T03:33:04;0.20;;;0.20;;
9836;SDS011;4957;51.412;6.724;2023-03-11T03:35:31;0.20;;;0.20;;
9836;SDS011;4957;51.412;6.724;2023-03-11T03:37:58;0.20;;;0.20;;
9836;SDS011;4957;51.412;6.724;2023-03-11T03:40:24;0.20;;;0.20;;
9836;SDS011;4957;51.412;6.724;2023-03-11T03:42:50;0.20;;;0.20;;
9836;SDS011;4957;51.412;6.724;2023-03-11T03:45:16;0.20;;;0.20;;
9836;SDS011;4957;51.412;6.724;2023-03-11T03:47:42;0.20;;;0.20;;
9836;SDS011;4957;51.412;6.724;2023-03-11T03:50:09;0.20;;;0.20;;
9836;SDS011;4957;51.412;6.724;2023-03-11T03:52:35;0.20;;;0.20;;
9836;SDS011;4957;51.412;6.724;2023-03-11T03:55:03;0.20;;;0.20;;
9836;SDS011;4957;51.412;6.724;2023-03-11T03:57:29;0.20;;;0.20;;
9836;SDS011;4957;51.412;6.724;2023-03-11T03:59:55;0.20;;;0.20;;
9836;SDS011;4957;51.412;6.724;2023-03-11T04:02:21;0.23;;;0.23;;
9836;SDS011;4957;51.412;6.724;2023-03-11T04:04:47;0.20;;;0.20;;
9836;SDS011;4957;51.412;6.724;2023-03-11T04:07:13;0.20;;;0.20;;
9836;SDS011;4957;51.412;6.724;2023-03-11T04:09:40;0.20;;;0.20;;
9836;SDS011;4957;51.412;6.724;2023-03-11T04:12:07;0.30;;;0.30;;
9836;SDS011;4957;51.412;6.724;2023-03-11T04:14:37;0.20;;;0.20;;
9836;SDS011;4957;51.412;6.724;2023-03-11T04:17:02;0.20;;;0.20;;
9836;SDS011;4957;51.412;6.724;2023-03-11T04:19:28;0.20;;;0.20;;
9836;SDS011;4957;51.412;6.724;2023-03-11T04:21:54;0.20;;;0.20;;
9836;SDS011;4957;51.412;6.724;2023-03-11T04:24:19;0.20;;;0.20;;
9836;SDS011;4957;51.412;6.724;2023-03-11T04:26:45;0.20;;;0.20;;
9836;SDS011;4957;51.412;6.724;2023-03-11T04:29:11;0.20;;;0.20;;
9836;SDS011;4957;51.412;6.724;2023-03-11T04:31:36;0.20;;;0.20;;
9836;SDS011;4957;51.412;6.724;2023-03-11T04:34:02;0.20;;;0.20;;
9836;SDS011;4957;51.412;6.724;2023-03-11T04:36:28;0.30;;;0.30;;
9836;SDS011;4957;51.412;6.724;2023-03-11T04:38:54;0.30;;;0.30;;
9836;SDS011;4957;51.412;6.724;2023-03-11T04:41:21;0.20;;;0.20;;
9836;SDS011;4957;51.412;6.724;2023-03-11T04:43:48;0.20;;;0.20;;
9836;SDS011;4957;51.412;6.724;2023-03-11T04:46:13;0.20;;;0.20;;
9836;SDS011;4957;51.412;6.724;2023-03-11T04:48:39;0.20;;;0.20;;
9836;SDS011;4957;51.412;6.724;2023-03-11T04:51:05;0.20;;;0.20;;
9836;SDS011;4957;51.412;6.724;2023-03-11T04:53:32;0.20;;;0.20;;
9836;SDS011;4957;51.412;6.724;2023-03-11T04:55:58;0.20;;;0.20;;
9836;SDS011;4957;51.412;6.724;2023-03-11T04:58:23;0.20;;;0.20;;
9836;SDS011;4957;51.412;6.724;2023-03-11T05:00:50;0.20;;;0.20;;
9836;SDS011;4957;51.412;6.724;2023-03-11T05:03:16;0.20;;;0.20;;
9836;SDS011;4957;51.412;6.724;2023-03-11T05:05:43;0.20;;;0.20;;
9836;SDS011;4957;51.412;6.724;2023-03-11T05:08:09;0.20;;;0.20;;
9836;SDS011;4957;51.412;6.724;2023-03-11T05:10:35;0.20;;;0.20;;
9836;SDS011;4957;51.412;6.724;2023-03-11T05:13:00;0.20;;;0.20;;
9836;SDS011;4957;51.412;6.724;2023-03-11T05:15:26;0.20;;;0.20;;
9836;SDS011;4957;51.412;6.724;2023-03-11T05:17:54;0.20;;;0.20;;
9836;SDS011;4957;51.412;6.724;2023-03-11T05:20:20;0.20;;;0.20;;
9836;SDS011;4957;51.412;6.724;2023-03-11T05:22:46;0.20;;;0.20;;
9836;SDS011;4957;51.412;6.724;2023-03-11T05:25:11;0.20;;;0.20;;
9836;SDS011;4957;51.412;6.724;2023-03-11T05:27:37;0.20;;;0.20;;
9836;SDS011;4957;51.412;6.724;2023-03-11T05:30:03;0.20;;;0.20;;
9836;SDS011;4957;51.412;6.724;2023-03-11T05:32:29;0.20;;;0.20;;
9836;SDS011;4957;51.412;6.724;2023-03-11T05:34:55;0.20;;;0.20;;
9836;SDS011;4957;51.412;6.724;2023-03-11T05:37:20;0.20;;;0.20;;
9836;SDS011;4957;51.412;6.724;2023-03-11T05:39:46;0.20;;;0.20;;
9836;SDS011;4957;51.412;6.724;2023-03-11T05:42:12;0.20;;;0.20;;
9836;SDS011;4957;51.412;6.724;2023-03-11T05:44:37;0.20;;;0.20;;
9836;SDS011;4957;51.412;6.724;2023-03-11T05:47:03;0.27;;;0.27;;
9836;SDS011;4957;51.412;6.724;2023-03-11T05:49:29;0.20;;;0.20;;
9836;SDS011;4957;51.412;6.724;2023-03-11T05:51:55;0.20;;;0.20;;
9836;SDS011;4957;51.412;6.724;2023-03-11T05:54:21;0.20;;;0.20;;
9836;SDS011;4957;51.412;6.724;2023-03-11T05:56:46;0.20;;;0.20;;
9836;SDS011;4957;51.412;6.724;2023-03-11T05:59:13;0.20;;;0.20;;
9836;SDS011;4957;51.412;6.724;2023-03-11T06:01:39;0.20;;;0.20;;
9836;SDS011;4957;51.412;6.724;2023-03-11T06:04:05;0.20;;;0.20;;
9836;SDS011;4957;51.412;6.724;2023-03-11T06:06:31;0.27;;;0.27;;
9836;SDS011;4957;51.412;6.724;2023-03-11T06:08:57;0.30;;;0.30;;
9836;SDS011;4957;51.412;6.724;2023-03-11T06:11:23;0.20;;;0.20;;
9836;SDS011;4957;51.412;6.724;2023-03-11T06:13:53;0.20;;;0.20;;
9836;SDS011;4957;51.412;6.724;2023-03-11T06:16:20;0.20;;;0.20;;
9836;SDS011;4957;51.412;6.724;2023-03-11T06:18:46;0.20;;;0.20;;
9836;SDS011;4957;51.412;6.724;2023-03-11T06:21:17;0.20;;;0.20;;
9836;SDS011;4957;51.412;6.724;2023-03-11T06:23:47;0.30;;;0.30;;
9836;SDS011;4957;51.412;6.724;2023-03-11T06:26:15;0.20;;;0.20;;
9836;SDS011;4957;51.412;6.724;2023-03-11T06:28:44;0.20;;;0.20;;
9836;SDS011;4957;51.412;6.724;2023-03-11T06:31:21;0.30;;;0.30;;
9836;SDS011;4957;51.412;6.724;2023-03-11T06:33:49;0.20;;;0.20;;
9836;SDS011;4957;51.412;6.724;2023-03-11T06:36:16;0.20;;;0.20;;
9836;SDS011;4957;51.412;6.724;2023-03-11T06:38:43;0.20;;;0.20;;
9836;SDS011;4957;51.412;6.724;2023-03-11T06:41:10;0.20;;;0.20;;
9836;SDS011;4957;51.412;6.724;2023-03-11T06:43:37;0.20;;;0.20;;
9836;SDS011;4957;51.412;6.724;2023-03-11T06:46:12;0.20;;;0.20;;
9836;SDS011;4957;51.412;6.724;2023-03-11T06:48:41;0.20;;;0.20;;
9836;SDS011;4957;51.412;6.724;2023-03-11T06:51:07;0.20;;;0.20;;
9836;SDS011;4957;51.412;6.724;2023-03-11T06:53:34;0.20;;;0.20;;
9836;SDS011;4957;51.412;6.724;2023-03-11T06:56:10;0.20;;;0.20;;
9836;SDS011;4957;51.412;6.724;2023-03-11T06:58:37;0.20;;;0.20;;
9836;SDS011;4957;51.412;6.724;2023-03-11T07:01:18;0.20;;;0.20;;
9836;SDS011;4957;51.412;6.724;2023-03-11T07:03:46;0.30;;;0.30;;
9836;SDS011;4957;51.412;6.724;2023-03-11T07:06:13;0.20;;;0.20;;
9836;SDS011;4957;51.412;6.724;2023-03-11T07:08:40;0.20;;;0.20;;
9836;SDS011;4957;51.412;6.724;2023-03-11T07:13:33;0.20;;;0.20;;
9836;SDS011;4957;51.412;6.724;2023-03-11T07:16:03;0.20;;;0.20;;
9836;SDS011;4957;51.412;6.724;2023-03-11T07:18:48;0.20;;;0.20;;
9836;SDS011;4957;51.412;6.724;2023-03-11T07:21:16;0.20;;;0.20;;
9836;SDS011;4957;51.412;6.724;2023-03-11T07:23:43;0.20;;;0.20;;
9836;SDS011;4957;51.412;6.724;2023-03-11T07:26:13;0.20;;;0.20;;
9836;SDS011;4957;51.412;6.724;2023-03-11T07:28:39;0.20;;;0.20;;
9836;SDS011;4957;51.412;6.724;2023-03-11T07:31:10;0.30;;;0.30;;
9836;SDS011;4957;51.412;6.724;2023-03-11T07:33:47;0.20;;;0.20;;
9836;SDS011;4957;51.412;6.724;2023-03-11T07:36:14;0.20;;;0.20;;
9836;SDS011;4957;51.412;6.724;2023-03-11T07:38:42;0.30;;;0.30;;
9836;SDS011;4957;51.412;6.724;2023-03-11T07:41:12;0.20;;;0.20;;
9836;SDS011;4957;51.412;6.724;2023-03-11T07:43:39;0.20;;;0.20;;
9836;SDS011;4957;51.412;6.724;2023-03-11T07:46:09;0.20;;;0.20;;
9836;SDS011;4957;51.412;6.724;2023-03-11T07:48:37;0.20;;;0.20;;
9836;SDS011;4957;51.412;6.724;2023-03-11T07:51:23;0.20;;;0.20;;
9836;SDS011;4957;51.412;6.724;2023-03-11T07:53:51;0.20;;;0.20;;
9836;SDS011;4957;51.412;6.724;2023-03-11T07:56:19;0.17;;;0.17;;
9836;SDS011;4957;51.412;6.724;2023-03-11T07:58:47;0.10;;;0.10;;
9836;SDS011;4957;51.412;6.724;2023-03-11T08:01:18;0.20;;;0.20;;
9836;SDS011;4957;51.412;6.724;2023-03-11T08:03:46;0.20;;;0.20;;
9836;SDS011;4957;51.412;6.724;2023-03-11T08:06:21;0.20;;;0.20;;
9836;SDS011;4957;51.412;6.724;2023-03-11T08:08:49;0.20;;;0.20;;
9836;SDS011;4957;51.412;6.724;2023-03-11T08:11:15;0.20;;;0.20;;
9836;SDS011;4957;51.412;6.724;2023-03-11T08:13:42;0.17;;;0.17;;
9836;SDS011;4957;51.412;6.724;2023-03-11T08:16:09;0.20;;;0.20;;
9836;SDS011;4957;51.412;6.724;2023-03-11T08:18:37;0.10;;;0.10;;
9836;SDS011;4957;51.412;6.724;2023-03-11T08:21:03;0.20;;;0.20;;
9836;SDS011;4957;51.412;6.724;2023-03-11T08:23:33;0.20;;;0.20;;
9836;SDS011;4957;51.412;6.724;2023-03-11T08:26:03;0.20;;;0.20;;
9836;SDS011;4957;51.412;6.724;2023-03-11T08:28:33;0.10;;;0.10;;
9836;SDS011;4957;51.412;6.724;2023-03-11T08:31:00;0.10;;;0.10;;
9836;SDS011;4957;51.412;6.724;2023-03-11T08:33:26;0.10;;;0.10;;
9836;SDS011;4957;51.412;6.724;2023-03-11T08:35:52;0.10;;;0.10;;
9836;SDS011;4957;51.412;6.724;2023-03-11T08:38:18;0.10;;;0.10;;
9836;SDS011;4957;51.412;6.724;2023-03-11T08:40:44;0.10;;;0.10;;
9836;SDS011;4957;51.412;6.724;2023-03-11T08:43:13;0.10;;;0.10;;
9836;SDS011;4957;51.412;6.724;2023-03-11T08:45:39;0.10;;;0.10;;
9836;SDS011;4957;51.412;6.724;2023-03-11T08:48:06;0.10;;;0.10;;
9836;SDS011;4957;51.412;6.724;2023-03-11T08:50:34;0.00;;;0.00;;
9836;SDS011;4957;51.412;6.724;2023-03-11T08:53:00;0.10;;;0.10;;
9836;SDS011;4957;51.412;6.724;2023-03-11T08:55:27;0.10;;;0.10;;
9836;SDS011;4957;51.412;6.724;2023-03-11T08:57:53;0.10;;;0.10;;
9836;SDS011;4957;51.412;6.724;2023-03-11T09:00:19;0.10;;;0.10;;
9836;SDS011;4957;51.412;6.724;2023-03-11T09:02:46;0.10;;;0.10;;
9836;SDS011;4957;51.412;6.724;2023-03-11T09:05:12;0.10;;;0.10;;
9836;SDS011;4957;51.412;6.724;2023-03-11T09:07:38;0.10;;;0.10;;
9836;SDS011;4957;51.412;6.724;2023-03-11T09:10:04;0.03;;;0.03;;
9836;SDS011;4957;51.412;6.724;2023-03-11T09:12:30;0.07;;;0.07;;
9836;SDS011;4957;51.412;6.724;2023-03-11T09:14:56;0.00;;;0.00;;
9836;SDS011;4957;51.412;6.724;2023-03-11T09:17:22;0.10;;;0.10;;
9836;SDS011;4957;51.412;6.724;2023-03-11T09:19:47;0.00;;;0.00;;
9836;SDS011;4957;51.412;6.724;2023-03-11T09:22:13;0.00;;;0.00;;
9836;SDS011;4957;51.412;6.724;2023-03-11T09:24:39;0.00;;;0.00;;
9836;SDS011;4957;51.412;6.724;2023-03-11T09:27:05;0.00;;;0.00;;
9836;SDS011;4957;51.412;6.724;2023-03-11T09:29:30;0.00;;;0.00;;
9836;SDS011;4957;51.412;6.724;2023-03-11T09:31:56;0.00;;;0.00;;
9836;SDS011;4957;51.412;6.724;2023-03-11T09:34:22;0.10;;;0.10;;
9836;SDS011;4957;51.412;6.724;2023-03-11T09:36:48;0.00;;;0.00;;
9836;SDS011;4957;51.412;6.724;2023-03-11T09:39:14;0.00;;;0.00;;
9836;SDS011;4957;51.412;6.724;2023-03-11T09:50:27;0.00;;;0.00;;
9836;SDS011;4957;51.412;6.724;2023-03-11T10:06:32;0.00;;;0.00;;
9836;SDS011;4957;51.412;6.724;2023-03-11T10:20:13;0.00;;;0.00;;
9836;SDS011;4957;51.412;6.724;2023-03-11T10:23:06;0.00;;;0.00;;
9836;SDS011;4957;51.412;6.724;2023-03-11T10:28:11;0.00;;;0.00;;
9836;SDS011;4957;51.412;6.724;2023-03-11T10:30:49;0.00;;;0.00;;
9836;SDS011;4957;51.412;6.724;2023-03-11T10:35:53;0.00;;;0.00;;
9836;SDS011;4957;51.412;6.724;2023-03-11T10:38:23;0.00;;;0.00;;
9836;SDS011;4957;51.412;6.724;2023-03-11T10:40:57;0.00;;;0.00;;
9836;SDS011;4957;51.412;6.724;2023-03-11T10:43:37;0.00;;;0.00;;
9836;SDS011;4957;51.412;6.724;2023-03-11T10:46:18;0.00;;;0.00;;
9836;SDS011;4957;51.412;6.724;2023-03-11T10:48:47;0.00;;;0.00;;
9836;SDS011;4957;51.412;6.724;2023-03-11T10:51:15;0.00;;;0.00;;
9836;SDS011;4957;51.412;6.724;2023-03-11T10:53:47;0.00;;;0.00;;
9836;SDS011;4957;51.412;6.724;2023-03-11T10:56:27;0.00;;;0.00;;
9836;SDS011;4957;51.412;6.724;2023-03-11T10:58:55;0.00;;;0.00;;
9836;SDS011;4957;51.412;6.724;2023-03-11T11:01:22;0.00;;;0.00;;
9836;SDS011;4957;51.412;6.724;2023-03-11T11:03:49;0.00;;;0.00;;
9836;SDS011;4957;51.412;6.724;2023-03-11T11:06:32;0.00;;;0.00;;
9836;SDS011;4957;51.412;6.724;2023-03-11T11:09:16;0.00;;;0.00;;
9836;SDS011;4957;51.412;6.724;2023-03-11T11:12:00;0.00;;;0.00;;
9836;SDS011;4957;51.412;6.724;2023-03-11T11:14:47;0.00;;;0.00;;
9836;SDS011;4957;51.412;6.724;2023-03-11T11:17:21;0.00;;;0.00;;
9836;SDS011;4957;51.412;6.724;2023-03-11T11:19:49;0.00;;;0.00;;
9836;SDS011;4957;51.412;6.724;2023-03-11T11:22:17;0.00;;;0.00;;
9836;SDS011;4957;51.412;6.724;2023-03-11T11:24:45;0.00;;;0.00;;
9836;SDS011;4957;51.412;6.724;2023-03-11T11:27:25;0.00;;;0.00;;
9836;SDS011;4957;51.412;6.724;2023-03-11T11:32:47;0.00;;;0.00;;
9836;SDS011;4957;51.412;6.724;2023-03-11T11:35:17;0.00;;;0.00;;
9836;SDS011;4957;51.412;6.724;2023-03-11T11:37:48;0.00;;;0.00;;
9836;SDS011;4957;51.412;6.724;2023-03-11T11:40:18;0.00;;;0.00;;
9836;SDS011;4957;51.412;6.724;2023-03-11T11:42:53;0.23;;;0.13;;
9836;SDS011;4957;51.412;6.724;2023-03-11T11:45:38;4.67;;;1.30;;
9836;SDS011;4957;51.412;6.724;2023-03-11T11:50:44;5.97;;;1.30;;
9836;SDS011;4957;51.412;6.724;2023-03-11T11:53:22;13.13;;;1.30;;
9836;SDS011;4957;51.412;6.724;2023-03-11T11:55:50;2.80;;;1.23;;
9836;SDS011;4957;51.412;6.724;2023-03-11T11:58:18;6.03;;;1.30;;
9836;SDS011;4957;51.412;6.724;2023-03-11T12:00:50;4.70;;;1.67;;
9836;SDS011;4957;51.412;6.724;2023-03-11T12:04:06;7.50;;;1.30;;
9836;SDS011;4957;51.412;6.724;2023-03-11T12:06:29;3.10;;;1.27;;
9836;SDS011;4957;51.412;6.724;2023-03-11T12:09:19;3.63;;;1.10;;
9836;SDS011;4957;51.412;6.724;2023-03-11T12:12:07;3.17;;;1.10;;
9836;SDS011;4957;51.412;6.724;2023-03-11T12:17:40;5.33;;;0.80;;
9836;SDS011;4957;51.412;6.724;2023-03-11T12:31:25;15.07;;;1.60;;
9836;SDS011;4957;51.412;6.724;2023-03-11T12:33:55;6.30;;;1.20;;
9836;SDS011;4957;51.412;6.724;2023-03-11T12:36:30;4.60;;;1.30;;
9836;SDS011;4957;51.412;6.724;2023-03-11T12:39:01;2.47;;;0.90;;
9836;SDS011;4957;51.412;6.724;2023-03-11T12:41:36;3.00;;;1.03;;
9836;SDS011;4957;51.412;6.724;2023-03-11T12:49:28;5.07;;;1.03;;
9836;SDS011;4957;51.412;6.724;2023-03-11T12:54:36;4.10;;;1.10;;
9836;SDS011;4957;51.412;6.724;2023-03-11T13:08:26;1.37;;;0.73;;
9836;SDS011;4957;51.412;6.724;2023-03-11T13:10:53;5.50;;;1.40;;
9836;SDS011;4957;51.412;6.724;2023-03-11T13:15:49;2.73;;;1.50;;
9836;SDS011;4957;51.412;6.724;2023-03-11T13:18:27;4.20;;;1.03;;
9836;SDS011;4957;51.412;6.724;2023-03-11T13:23:44;4.00;;;0.90;;
9836;SDS011;4957;51.412;6.724;2023-03-11T13:26:16;7.47;;;1.27;;
9836;SDS011;4957;51.412;6.724;2023-03-11T13:29:09;1.10;;;0.67;;
9836;SDS011;4957;51.412;6.724;2023-03-11T13:34:47;3.10;;;0.93;;
9836;SDS011;4957;51.412;6.724;2023-03-11T13:40:25;3.87;;;0.73;;
9836;SDS011;4957;51.412;6.724;2023-03-11T13:43:00;4.30;;;1.10;;
9836;SDS011;4957;51.412;6.724;2023-03-11T13:45:29;3.63;;;0.80;;
9836;SDS011;4957;51.412;6.724;2023-03-11T13:48:06;1.50;;;0.87;;
9836;SDS011;4957;51.412;6.724;2023-03-11T13:50:40;4.43;;;1.00;;
9836;SDS011;4957;51.412;6.724;2023-03-11T13:56:23;2.03;;;0.90;;
9836;SDS011;4957;51.412;6.724;2023-03-11T13:58:52;3.27;;;0.87;;
9836;SDS011;4957;51.412;6.724;2023-03-11T14:01:18;1.90;;;0.80;;
9836;SDS011;4957;51.412;6.724;2023-03-11T14:03:45;1.87;;;1.10;;
9836;SDS011;4957;51.412;6.724;2023-03-11T14:06:13;3.33;;;1.10;;
9836;SDS011;4957;51.412;6.724;2023-03-11T14:08:41;2.13;;;1.00;;
9836;SDS011;4957;51.412;6.724;2023-03-11T14:13:41;2.07;;;1.10;;
9836;SDS011;4957;51.412;6.724;2023-03-11T14:18:44;5.23;;;1.53;;
9836;SDS011;4957;51.412;6.724;2023-03-11T14:21:27;4.47;;;1.00;;
9836;SDS011;4957;51.412;6.724;2023-03-11T14:23:55;1.20;;;1.10;;
9836;SDS011;4957;51.412;6.724;2023-03-11T14:26:22;1.10;;;0.90;;
9836;SDS011;4957;51.412;6.724;2023-03-11T14:28:54;2.13;;;1.37;;
9836;SDS011;4957;51.412;6.724;2023-03-11T14:34:03;5.17;;;1.43;;
9836;SDS011;4957;51.412;6.724;2023-03-11T14:36:42;2.00;;;1.00;;
9836;SDS011;4957;51.412;6.724;2023-03-11T14:47:37;2.63;;;1.10;;
9836;SDS011;4957;51.412;6.724;2023-03-11T14:50:14;4.20;;;1.47;;
9836;SDS011;4957;51.412;6.724;2023-03-11T14:52:44;2.80;;;1.03;;
9836;SDS011;4957;51.412;6.724;2023-03-11T14:55:15;4.80;;;0.87;;
9836;SDS011;4957;51.412;6.724;2023-03-11T14:57:48;2.57;;;0.80;;
9836;SDS011;4957;51.412;6.724;2023-03-11T15:00:23;2.87;;;0.80;;
9836;SDS011;4957;51.412;6.724;2023-03-11T15:03:01;3.23;;;1.30;;
9836;SDS011;4957;51.412;6.724;2023-03-11T15:05:54;2.90;;;0.83;;
9836;SDS011;4957;51.412;6.724;2023-03-11T15:08:22;1.43;;;0.90;;
9836;SDS011;4957;51.412;6.724;2023-03-11T15:10:59;2.53;;;1.00;;
9836;SDS011;4957;51.412;6.724;2023-03-11T15:13:25;2.00;;;0.93;;
9836;SDS011;4957;51.412;6.724;2023-03-11T15:15:54;3.23;;;1.17;;
9836;SDS011;4957;51.412;6.724;2023-03-11T15:18:23;1.97;;;0.90;;
9836;SDS011;4957;51.412;6.724;2023-03-11T15:21:10;3.57;;;0.67;;
9836;SDS011;4957;51.412;6.724;2023-03-11T15:23:39;6.10;;;0.93;;
9836;SDS011;4957;51.412;6.724;2023-03-11T15:26:17;2.23;;;1.13;;
9836;SDS011;4957;51.412;6.724;2023-03-11T15:28:45;3.10;;;0.90;;
9836;SDS011;4957;51.412;6.724;2023-03-11T15:31:29;4.30;;;1.23;;
9836;SDS011;4957;51.412;6.724;2023-03-11T15:41:46;1.10;;;0.90;;
9836;SDS011;4957;51.412;6.724;2023-03-11T15:47:00;2.67;;;0.90;;
9836;SDS011;4957;51.412;6.724;2023-03-11T15:49:27;0.90;;;0.87;;
9836;SDS011;4957;51.412;6.724;2023-03-11T15:51:57;5.87;;;1.00;;
9836;SDS011;4957;51.412;6.724;2023-03-11T15:54:23;2.13;;;1.10;;
9836;SDS011;4957;51.412;6.724;2023-03-11T15:56:49;1.20;;;0.83;;
9836;SDS011;4957;51.412;6.724;2023-03-11T15:59:15;3.33;;;0.93;;
9836;SDS011;4957;51.412;6.724;2023-03-11T16:01:42;4.33;;;0.90;;
9836;SDS011;4957;51.412;6.724;2023-03-11T16:04:12;2.07;;;1.00;;
9836;SDS011;4957;51.412;6.724;2023-03-11T16:06:40;2.33;;;0.97;;
9836;SDS011;4957;51.412;6.724;2023-03-11T16:09:06;4.57;;;0.80;;
9836;SDS011;4957;51.412;6.724;2023-03-11T16:11:32;1.43;;;1.03;;
9836;SDS011;4957;51.412;6.724;2023-03-11T16:13:59;2.37;;;0.80;;
9836;SDS011;4957;51.412;6.724;2023-03-11T16:16:24;3.03;;;1.00;;
9836;SDS011;4957;51.412;6.724;2023-03-11T16:18:50;6.83;;;1.30;;
9836;SDS011;4957;51.412;6.724;2023-03-11T16:21:16;4.87;;;1.50;;
9836;SDS011;4957;51.412;6.724;2023-03-11T16:23:45;3.23;;;1.33;;
9836;SDS011;4957;51.412;6.724;2023-03-11T16:26:12;3.80;;;1.00;;
9836;SDS011;4957;51.412;6.724;2023-03-11T16:28:38;3.47;;;1.07;;
9836;SDS011;4957;51.412;6.724;2023-03-11T16:31:04;4.80;;;1.10;;
9836;SDS011;4957;51.412;6.724;2023-03-11T16:33:32;1.10;;;1.00;;
9836;SDS011;4957;51.412;6.724;2023-03-11T16:35:58;1.93;;;1.20;;
9836;SDS011;4957;51.412;6.724;2023-03-11T16:38:24;2.10;;;1.23;;
9836;SDS011;4957;51.412;6.724;2023-03-11T16:40:56;2.17;;;1.00;;
9836;SDS011;4957;51.412;6.724;2023-03-11T16:43:24;4.57;;;1.30;;
9836;SDS011;4957;51.412;6.724;2023-03-11T16:45:50;3.83;;;1.10;;
9836;SDS011;4957;51.412;6.724;2023-03-11T16:48:18;2.60;;;1.03;;
9836;SDS011;4957;51.412;6.724;2023-03-11T16:50:44;2.53;;;1.13;;
9836;SDS011;4957;51.412;6.724;2023-03-11T16:53:10;5.50;;;1.27;;
9836;SDS011;4957;51.412;6.724;2023-03-11T16:55:38;1.23;;;0.80;;
9836;SDS011;4957;51.412;6.724;2023-03-11T16:58:04;5.13;;;1.00;;
9836;SDS011;4957;51.412;6.724;2023-03-11T17:00:29;1.10;;;0.77;;
9836;SDS011;4957;51.412;6.724;2023-03-11T17:02:55;5.13;;;1.20;;
9836;SDS011;4957;51.412;6.724;2023-03-11T17:05:21;2.50;;;1.03;;
9836;SDS011;4957;51.412;6.724;2023-03-11T17:07:47;1.57;;;0.90;;
9836;SDS011;4957;51.412;6.724;2023-03-11T17:10:17;1.73;;;1.17;;
9836;SDS011;4957;51.412;6.724;2023-03-11T17:12:43;4.37;;;1.70;;
9836;SDS011;4957;51.412;6.724;2023-03-11T17:15:09;4.23;;;1.57;;
9836;SDS011;4957;51.412;6.724;2023-03-11T17:17:34;2.87;;;1.63;;
9836;SDS011;4957;51.412;6.724;2023-03-11T17:20:00;1.80;;;1.20;;
9836;SDS011;4957;51.412;6.724;2023-03-11T17:22:26;5.13;;;1.77;;
9836;SDS011;4957;51.412;6.724;2023-03-11T17:24:52;3.57;;;1.40;;
9836;SDS011;4957;51.412;6.724;2023-03-11T17:27:17;3.07;;;1.50;;
9836;SDS011;4957;51.412;6.724;2023-03-11T17:29:43;3.77;;;1.83;;
9836;SDS011;4957;51.412;6.724;2023-03-11T17:32:09;3.27;;;1.67;;
9836;SDS011;4957;51.412;6.724;2023-03-11T17:34:37;4.50;;;1.50;;